Latest Coastal Weather Observations for Albion Park

IDN60701

Issued at 7:55 pm EDT Saturday 1 November 2014 (issued every 10 minutes, with the page automatically refreshed every 10 minutes)

About coastal observations | Map of coastal stations | Coastal observations for NSW | Marine services | Other Formats
Station Details ID: 068241 Name: WOLLONGONG AIRPORT Lat: -34.56 Lon: 150.79 Height: 8.0 m
Data from the previous 72 hours. | See also: Recent months at Albion Park
Date/Time
EDT
Temp

°C
Wind Pressure Rain
since 9am
mm
Weather Cloud Vis
km
Sea
Height
m
Swell
Dir
 
Speed
knots
Gust
knots
hPa Trend Height
m
Period
s
Dir
01/07:30pm 21.6 SW 13 22 1005.6 - 1.0 - Partly cloudy 10 - - - -
01/07:01pm 22.1 W 16 26 1004.8 - 1.0 - Partly cloudy 10 - - - -
01/07:00pm 22.2 W 17 26 1004.8 - 1.0 - Partly cloudy 10 - - - -
01/06:37pm 22.7 W 17 28 1003.5 - 1.0 - - 10 - - - -
01/06:30pm 23.0 W 21 28 1003.1 - 1.0 - Partly cloudy 10 - - - -
01/06:26pm 23.4 W 19 26 1003.0 - 1.0 - Partly cloudy 10 - - - -
01/06:14pm 24.6 WSW 21 27 1002.3 - 1.0 - Partly cloudy 10 - - - -
01/06:01pm 25.1 W 27 38 1001.7 - 1.0 - Partly cloudy 10 - - - -
01/06:00pm 25.1 W 25 34 1001.8 - 1.0 - Partly cloudy 10 - - - -
01/05:30pm 27.0 W 23 35 1000.7 - 1.0 - Partly cloudy 10 - - - -
01/05:20pm 27.9 WSW 16 29 1000.4 - 1.0 - Partly cloudy 10 - - - -
01/05:19pm 28.0 W 15 24 1000.4 - 1.0 - Partly cloudy 10 - - - -
01/05:00pm 27.9 WSW 8 14 999.8 - 1.0 - - 10 - - - -
01/04:30pm 26.7 W 19 31 1000.0 - 1.0 - Partly cloudy 10 - - - -
01/04:21pm 27.3 WSW 16 31 999.7 - 1.0 - Partly cloudy 10 - - - -
01/04:00pm 25.4 WNW 12 15 999.6 - 1.0 - Partly cloudy 10 - - - -
01/03:59pm 25.1 WNW 12 15 999.5 - 1.0 - Partly cloudy 10 - - - -
01/03:46pm 25.0 W 28 38 999.4 - 1.0 - Partly cloudy 10 - - - -
01/03:41pm 27.1 W 29 38 999.4 - 1.0 - Partly cloudy 10 - - - -
01/03:33pm 29.2 W 15 27 998.4 - 1.0 - Partly cloudy 10 - - - -
01/03:30pm 29.5 W 11 22 998.2 - 1.0 - - 10 - - - -
01/03:00pm 28.3 NW 14 19 998.5 - 1.0 Recent precip. Partly cloudy 10 - - - -
01/02:54pm 27.9 WNW 15 21 998.6 - 1.0 - Partly cloudy 10 - - - -
01/02:36pm 25.1 W 24 35 999.1 - 0.6 - Partly cloudy 4 - - - -
01/02:30pm 28.9 W 22 33 998.7 - 0.0 - Partly cloudy 10 - - - -
01/02:05pm 34.2 WNW 18 28 997.4 - 0.0 - - 10 - - - -
01/02:04pm 34.2 W 20 28 997.3 - 0.0 - - 10 - - - -
01/02:00pm 34.1 NW 22 31 997.2 - 0.0 - - 10 - - - -
01/01:38pm 35.0 WNW 18 30 997.6 - 0.0 - - 10 - - - -
01/01:30pm 34.8 WNW 19 26 997.7 - 0.0 - Partly cloudy 10 - - - -
01/01:07pm 33.5 NW 19 25 998.4 - 0.0 - Partly cloudy 10 - - - -
01/01:00pm 33.9 W 21 29 998.6 - 0.0 - Partly cloudy 10 - - - -
01/12:53pm 33.2 W 17 29 998.6 - 0.0 - Partly cloudy 10 - - - -
01/12:30pm 32.1 W 16 23 998.7 - 0.0 - Partly cloudy 10 - - - -
01/12:00pm 34.1 NW 19 30 998.7 - 0.0 - Mostly clear 10 - - - -
01/11:40am 33.6 NW 15 28 999.1 - 0.0 - Partly cloudy 10 - - - -
01/11:30am 33.9 NW 12 19 999.3 - 0.0 - - 10 - - - -
01/11:00am 33.0 NW 15 23 999.6 - 0.0 - - 10 - - - -
01/10:30am 32.1 NNW 17 25 999.8 - 0.0 - - 10 - - - -
01/10:00am 31.1 NW 13 21 1000.2 - 0.0 - - 10 - - - -
01/09:30am 30.2 NW 11 23 1000.7 - 0.0 - - 10 - - - -
01/09:00am 29.2 NW 10 16 1001.3 - 0.0 - - 10 - - - -
01/08:30am 27.7 E 3 7 1001.7 - 0.0 - - 10 - - - -
01/08:00am 26.6 WNW 4 7 1002.2 - 0.0 - - 10 - - - -
01/07:30am 26.7 NW 5 8 1002.5 - 0.0 - - 10 - - - -
01/07:00am 26.0 NNW 10 13 1002.6 - 0.0 - - 10 - - - -
01/06:30am 24.1 NNW 5 7 1002.7 - 0.0 - - 10 - - - -
01/06:00am 24.9 N 8 12 1002.4 - 0.0 - - 10 - - - -
01/05:30am 25.5 N 8 13 1002.4 - 0.0 - - 10 - - - -
01/05:00am 24.0 NNW 8 15 1002.3 - 0.0 - - 10 - - - -
01/04:30am 21.6 NW 5 7 1002.5 - 0.0 - - 10 - - - -
01/04:00am 20.9 W 6 8 1002.9 - 0.0 - - 10 - - - -
01/03:30am 17.2 WSW 5 8 1003.1 - 0.0 - - 10 - - - -
01/03:00am 17.3 SSE 4 8 1003.8 - 0.0 - Cloudy 10 - - - -
01/02:30am 16.0 NW 3 7 1004.1 - 0.0 - - 10 - - - -
01/02:00am 16.2 ESE 4 6 1004.0 - 0.0 - - 10 - - - -
01/01:30am 15.6 W 4 5 1004.6 - 0.0 - - 10 - - - -
01/01:00am 15.4 WSW 5 6 1005.4 - 0.0 - - 10 - - - -
01/12:30am 15.4 W 4 5 1005.6 - 0.0 - - 10 - - - -
01/12:00am 15.0 W 5 5 1006.1 - 0.0 - Cloudy 10 - - - -
 
Date/Time
EDT
Temp

°C
Wind Pressure Rain
since 9am
mm
Weather Cloud Vis
km
Sea
Height
m
Swell
Dir
 
Speed
knots
Gust
knots
hPa Trend Height
m
Period
s
Dir
31/11:30pm 15.4 SW 2 4 1006.5 - 0.0 - - 10 - - - -
31/11:00pm 16.8 CALM 0 0 1006.7 - 0.0 - - 10 - - - -
31/10:30pm 17.3 CALM 0 3 1007.2 - 0.0 - - 10 - - - -
31/10:00pm 18.0 CALM 0 0 1007.5 - 0.0 - - 10 - - - -
31/09:30pm 18.7 SW 1 5 1007.6 - 0.0 - - 10 - - - -
31/09:00pm 18.9 SW 4 5 1007.5 - 0.0 - Partly cloudy 10 - - - -
31/08:30pm 20.0 SW 1 4 1007.4 - 0.0 - - 9 - - - -
31/08:00pm 20.5 SW 1 3 1007.2 - 0.0 - - 10 - - - -
31/07:30pm 22.3 E 3 4 1007.1 - 0.0 - - 10 - - - -
31/07:00pm 24.1 E 4 5 1007.0 - 0.0 - - 10 - - - -
31/06:30pm 25.5 S 4 6 1006.8 - 0.0 - - 10 - - - -
31/06:00pm 24.9 ENE 5 8 1006.7 - 0.0 - - 10 - - - -
31/05:30pm 25.0 ENE 7 9 1006.7 - 0.0 - - 10 - - - -
31/05:00pm 25.0 ENE 7 10 1006.7 - 0.0 - - 10 - - - -
31/04:30pm 24.7 NE 8 11 1006.6 - 0.0 - - 10 - - - -
31/04:00pm 25.2 ENE 10 13 1006.9 - 0.0 - - 10 - - - -
31/03:30pm 24.9 ENE 10 13 1007.3 - 0.0 - - 10 - - - -
31/03:00pm 25.3 NE 10 13 1007.9 - 0.0 - - 10 - - - -
31/02:30pm 25.0 NE 9 12 1008.4 - 0.0 - - 10 - - - -
31/02:00pm 24.1 NE 9 12 1009.0 - 0.0 - - 10 - - - -
31/01:30pm 23.8 NE 9 11 1009.6 - 0.0 - - 10 - - - -
31/01:00pm 23.7 NE 9 11 1009.9 - 0.0 - - 10 - - - -
31/12:30pm 23.9 NE 10 12 1010.4 - 0.0 - - 10 - - - -
31/12:00pm 23.6 NE 10 13 1011.1 - 0.0 - Mostly clear 10 - - - -
31/11:30am 23.3 NE 9 12 1011.7 - 0.0 - - 10 - - - -
31/11:00am 23.7 NE 8 10 1012.1 - 0.0 - - 10 - - - -
31/10:30am 23.8 NE 8 11 1012.7 - 0.0 - - 10 - - - -
31/10:00am 23.4 NE 5 7 1012.9 - 0.0 - - 10 - - - -
31/09:30am 21.7 NE 6 8 1013.0 - 0.0 - - 10 - - - -
31/09:00am 21.5 ENE 6 7 1013.2 - 0.0 - - 10 - - - -
31/08:30am 20.5 W 4 6 1013.1 - 0.0 - - 10 - - - -
31/08:00am 17.9 CALM 0 0 1012.9 - 0.0 - - 10 - - - -
31/07:30am 15.1 CALM 0 0 1012.9 - 0.0 - - 10 - - - -
31/07:00am 13.6 CALM 0 0 1013.0 - 0.0 - - 10 - - - -
31/06:30am 11.4 CALM 0 0 1013.0 - 0.0 - - 10 - - - -
31/06:00am 10.9 CALM 0 0 1012.7 - 0.0 - - 10 - - - -
31/05:30am 11.0 CALM 0 0 1012.6 - 0.0 - - 10 - - - -
31/05:00am 11.1 CALM 0 0 1012.5 - 0.0 - - 10 - - - -
31/04:30am 11.1 W 1 3 1012.5 - 0.0 - - 10 - - - -
31/04:00am 11.4 W 5 6 1012.8 - 0.0 - - 10 - - - -
31/03:30am 11.0 W 4 5 1013.0 - 0.0 - - 10 - - - -
31/03:00am 11.4 CALM 0 0 1013.0 - 0.0 - - 10 - - - -
31/02:30am 11.4 CALM 0 0 1013.1 - 0.0 - - 10 - - - -
31/02:00am 11.9 CALM 0 0 1013.3 - 0.0 - - 10 - - - -
31/01:30am 11.7 W 5 5 1013.7 - 0.0 - - 10 - - - -
31/01:00am 12.0 W 3 5 1013.8 - 0.0 - - 10 - - - -
31/12:30am 13.0 CALM 0 0 1014.1 - 0.0 - - 10 - - - -
31/12:00am 12.8 W 4 4 1014.1 - 0.0 - - 10 - - - -
 
Date/Time
EDT
Temp

°C
Wind Pressure Rain
since 9am
mm
Weather Cloud Vis
km
Sea
Height
m
Swell
Dir
 
Speed
knots
Gust
knots
hPa Trend Height
m
Period
s
Dir
30/11:30pm 13.8 W 2 4 1014.0 - 0.0 - - 10 - - - -
30/11:00pm 14.4 W 4 5 1014.0 - 0.0 - - 10 - - - -
30/10:30pm 15.0 W 4 5 1014.0 - 0.0 - - 10 - - - -
30/10:00pm 15.2 W 5 6 1013.9 - 0.0 - - 10 - - - -
30/09:30pm 15.7 W 5 6 1013.8 - 0.0 - - 10 - - - -
30/09:00pm 16.5 W 3 4 1013.6 - 0.0 - - 10 - - - -
30/08:30pm 17.6 W 5 6 1013.3 - 0.0 - - 10 - - - -
30/08:00pm 18.5 W 5 5 1013.0 - 0.0 - - 10 - - - -
30/07:30pm 22.1 NE 5 6 1012.5 - 0.0 - - 10 - - - -
30/07:00pm 23.2 NE 6 7 1012.1 - 0.0 - - 10 - - - -
30/06:30pm 24.0 NE 6 7 1011.8 - 0.0 - - 10 - - - -
30/06:00pm 24.7 NE 6 8 1011.6 - 0.0 - - 10 - - - -
30/05:30pm 25.0 NE 7 9 1011.4 - 0.0 - - 10 - - - -
30/05:00pm 24.7 NE 9 11 1011.5 - 0.0 - - 10 - - - -
30/04:30pm 25.2 NE 9 13 1011.3 - 0.0 - - 10 - - - -
30/04:00pm 25.7 E 9 13 1011.1 - 0.0 - - 10 - - - -
30/03:30pm 26.0 ENE 11 13 1011.3 - 0.0 - - 10 - - - -
30/03:00pm 26.6 E 11 14 1011.4 - 0.0 - - 10 - - - -
30/02:30pm 26.6 E 10 14 1011.8 - 0.0 - - 10 - - - -
30/02:00pm 27.5 E 11 15 1011.8 - 0.0 - - 10 - - - -
30/01:30pm 29.3 WSW 6 13 1012.1 - 0.0 - - 10 - - - -
30/01:00pm 28.7 W 11 16 1012.3 - 0.0 - - 10 - - - -
30/12:30pm 28.6 W 12 15 1012.6 - 0.0 - - 10 - - - -
30/12:00pm 27.5 WSW 12 16 1013.1 - 0.0 - Mostly clear 10 - - - -
30/11:30am 27.6 W 14 21 1013.2 - 0.0 - - 10 - - - -
30/11:00am 26.9 NW 7 12 1013.7 - 0.0 - - 10 - - - -
30/10:30am 25.6 NW 5 9 1014.1 - 0.0 - - 10 - - - -
30/10:00am 25.0 W 7 12 1014.3 - 0.0 - - 10 - - - -
30/09:30am 23.8 NW 4 7 1014.4 - 0.0 - - 10 - - - -
30/09:00am 23.0 NNW 7 10 1014.6 - 0.0 - Cloudy 10 - - - -
30/08:30am 21.8 NNW 5 8 1014.8 - 0.0 - - 10 - - - -
30/08:00am 18.4 NW 4 5 1015.0 - 0.0 - - 10 - - - -
30/07:30am 15.5 W 3 5 1015.0 - 0.0 - - 10 - - - -
30/07:00am 13.1 CALM 0 0 1014.8 - 0.0 - - 10 - - - -
30/06:30am 11.9 CALM 0 0 1014.7 - 0.0 - - 10 - - - -
30/06:00am 12.1 W 3 4 1014.6 - 0.0 - - 10 - - - -
30/05:30am 13.0 CALM 0 2 1014.5 - 0.0 - - 10 - - - -
30/05:00am 13.4 W 3 5 1014.6 - 0.0 - - 10 - - - -
30/04:30am 13.5 W 3 6 1014.4 - 0.0 - - 10 - - - -
30/04:00am 15.1 WNW 5 7 1014.6 - 0.0 - - 10 - - - -
30/03:30am 17.6 N 6 8 1014.7 - 0.0 - Partly cloudy 10 - - - -
30/03:00am 18.1 N 8 12 1015.0 - 0.0 - Mostly cloudy 10 - - - -
30/02:30am 18.6 N 7 10 1015.3 - 0.0 - Cloudy 10 - - - -
30/02:00am 18.5 N 6 8 1015.5 - 0.0 - Cloudy 10 - - - -
30/01:30am 18.7 N 6 7 1015.7 - 0.0 - Cloudy 10 - - - -
30/01:00am 18.8 NNE 6 8 1016.0 - 0.0 - Cloudy 10 - - - -
30/12:30am 18.8 NNE 5 7 1016.3 - 0.0 - Cloudy 10 - - - -
30/12:00am 18.8 NNE 6 8 1016.6 - 0.0 - Cloudy 10 - - - -
 
Date/Time
EDT
Temp

°C
Wind Pressure Rain
since 9am
mm
Weather Cloud Vis
km
Sea
Height
m
Swell
Dir
 
Speed
knots
Gust
knots
hPa Trend Height
m
Period
s
Dir
29/11:30pm 18.7 NNE 5 6 1016.7 - 0.0 - Cloudy 10 - - - -
29/11:00pm 18.8 NNE 6 8 1016.8 - 0.0 - Cloudy 10 - - - -
29/10:30pm 18.8 N 6 8 1016.8 - 0.0 - Cloudy 10 - - - -
29/10:00pm 18.8 N 6 9 1016.8 - 0.0 - Cloudy 10 - - - -
29/09:30pm 18.8 N 7 11 1016.9 - 0.0 - Cloudy 10 - - - -
29/09:00pm 18.8 N 8 11 1016.9 - 0.0 - Cloudy 10 - - - -
29/08:30pm 18.8 NNE 10 13 1016.6 - 0.0 - Cloudy 10 - - - -
29/08:00pm 18.8 NNE 9 13 1016.5 - 0.0 - Partly cloudy 10 - - - -

Other Formats:

Comma delimited format used in spreadsheet applications
http://www.bom.gov.au/fwo/IDN60701/IDN60701.95748.axf

JavaScript Object Notation format (JSON) in row-major order
http://www.bom.gov.au/fwo/IDN60701/IDN60701.95748.json